sensor_id;sensor_type;location;lat;lon;timestamp;P1;durP1;ratioP1;P2;durP2;ratioP2
568;SDS011;269;48.884;9.192;2023-08-30T00:01:13;33.40;;;30.70;;
568;SDS011;269;48.884;9.192;2023-08-30T00:03:40;33.57;;;30.37;;
568;SDS011;269;48.884;9.192;2023-08-30T00:06:07;38.70;;;34.73;;
568;SDS011;269;48.884;9.192;2023-08-30T00:08:34;41.00;;;37.25;;
568;SDS011;269;48.884;9.192;2023-08-30T00:11:01;41.10;;;37.20;;
568;SDS011;269;48.884;9.192;2023-08-30T00:13:29;41.92;;;37.70;;
568;SDS011;269;48.884;9.192;2023-08-30T00:15:57;41.67;;;37.80;;
568;SDS011;269;48.884;9.192;2023-08-30T00:18:25;39.13;;;35.63;;
568;SDS011;269;48.884;9.192;2023-08-30T00:20:52;38.50;;;34.97;;
568;SDS011;269;48.884;9.192;2023-08-30T00:23:19;40.13;;;36.40;;
568;SDS011;269;48.884;9.192;2023-08-30T00:25:46;36.65;;;33.47;;
568;SDS011;269;48.884;9.192;2023-08-30T00:28:12;41.58;;;37.53;;
568;SDS011;269;48.884;9.192;2023-08-30T00:30:40;40.15;;;36.42;;
568;SDS011;269;48.884;9.192;2023-08-30T00:33:07;40.13;;;36.20;;
568;SDS011;269;48.884;9.192;2023-08-30T00:35:35;44.30;;;39.80;;
568;SDS011;269;48.884;9.192;2023-08-30T00:38:02;41.10;;;36.80;;
568;SDS011;269;48.884;9.192;2023-08-30T00:40:37;35.17;;;32.10;;
568;SDS011;269;48.884;9.192;2023-08-30T00:43:04;37.60;;;34.13;;
568;SDS011;269;48.884;9.192;2023-08-30T00:45:31;37.88;;;34.42;;
568;SDS011;269;48.884;9.192;2023-08-30T00:47:58;38.92;;;35.08;;
568;SDS011;269;48.884;9.192;2023-08-30T00:50:25;39.80;;;36.20;;
568;SDS011;269;48.884;9.192;2023-08-30T00:52:53;36.40;;;33.03;;
568;SDS011;269;48.884;9.192;2023-08-30T00:55:20;43.28;;;38.97;;
568;SDS011;269;48.884;9.192;2023-08-30T00:57:47;38.65;;;34.85;;
568;SDS011;269;48.884;9.192;2023-08-30T01:00:14;43.42;;;39.13;;
568;SDS011;269;48.884;9.192;2023-08-30T01:02:41;42.17;;;38.00;;
568;SDS011;269;48.884;9.192;2023-08-30T01:05:08;39.05;;;35.45;;
568;SDS011;269;48.884;9.192;2023-08-30T01:07:35;38.67;;;34.95;;
568;SDS011;269;48.884;9.192;2023-08-30T01:10:03;41.33;;;37.10;;
568;SDS011;269;48.884;9.192;2023-08-30T01:12:33;43.70;;;39.27;;
568;SDS011;269;48.884;9.192;2023-08-30T01:15:06;36.20;;;32.90;;
568;SDS011;269;48.884;9.192;2023-08-30T01:17:36;40.13;;;36.22;;
568;SDS011;269;48.884;9.192;2023-08-30T01:20:04;38.40;;;34.85;;
568;SDS011;269;48.884;9.192;2023-08-30T01:22:37;36.80;;;33.35;;
568;SDS011;269;48.884;9.192;2023-08-30T01:25:12;38.00;;;34.35;;
568;SDS011;269;48.884;9.192;2023-08-30T01:27:45;38.05;;;34.35;;
568;SDS011;269;48.884;9.192;2023-08-30T01:30:14;38.03;;;34.13;;
568;SDS011;269;48.884;9.192;2023-08-30T01:32:41;29.70;;;27.20;;
568;SDS011;269;48.884;9.192;2023-08-30T01:35:08;33.60;;;30.80;;
568;SDS011;269;48.884;9.192;2023-08-30T01:37:36;37.23;;;33.77;;
568;SDS011;269;48.884;9.192;2023-08-30T01:40:03;32.47;;;29.77;;
568;SDS011;269;48.884;9.192;2023-08-30T01:42:30;38.35;;;34.97;;
568;SDS011;269;48.884;9.192;2023-08-30T01:44:59;36.35;;;33.05;;
568;SDS011;269;48.884;9.192;2023-08-30T01:47:28;38.90;;;35.10;;
568;SDS011;269;48.884;9.192;2023-08-30T01:49:56;40.28;;;36.38;;
568;SDS011;269;48.884;9.192;2023-08-30T01:52:23;44.07;;;39.77;;
568;SDS011;269;48.884;9.192;2023-08-30T01:54:51;45.80;;;40.88;;
568;SDS011;269;48.884;9.192;2023-08-30T01:57:18;51.72;;;43.42;;
568;SDS011;269;48.884;9.192;2023-08-30T01:59:45;40.25;;;36.15;;
568;SDS011;269;48.884;9.192;2023-08-30T02:02:13;48.15;;;41.17;;
568;SDS011;269;48.884;9.192;2023-08-30T02:04:40;36.70;;;33.38;;
568;SDS011;269;48.884;9.192;2023-08-30T02:07:08;48.33;;;40.97;;
568;SDS011;269;48.884;9.192;2023-08-30T02:09:42;36.75;;;33.20;;
568;SDS011;269;48.884;9.192;2023-08-30T02:12:14;64.05;;;46.25;;
568;SDS011;269;48.884;9.192;2023-08-30T02:14:42;43.53;;;39.10;;
568;SDS011;269;48.884;9.192;2023-08-30T02:17:11;54.20;;;43.97;;
568;SDS011;269;48.884;9.192;2023-08-30T02:19:40;84.38;;;48.00;;
568;SDS011;269;48.884;9.192;2023-08-30T02:22:07;59.47;;;44.13;;
568;SDS011;269;48.884;9.192;2023-08-30T02:24:34;47.33;;;38.53;;
568;SDS011;269;48.884;9.192;2023-08-30T02:27:01;54.78;;;41.67;;
568;SDS011;269;48.884;9.192;2023-08-30T02:29:27;47.65;;;39.83;;
568;SDS011;269;48.884;9.192;2023-08-30T02:31:54;41.45;;;37.47;;
568;SDS011;269;48.884;9.192;2023-08-30T02:34:22;58.47;;;43.88;;
568;SDS011;269;48.884;9.192;2023-08-30T02:36:49;43.38;;;38.72;;
568;SDS011;269;48.884;9.192;2023-08-30T02:39:16;46.38;;;39.50;;
568;SDS011;269;48.884;9.192;2023-08-30T02:41:43;44.75;;;40.05;;
568;SDS011;269;48.884;9.192;2023-08-30T02:44:11;39.92;;;35.88;;
568;SDS011;269;48.884;9.192;2023-08-30T02:46:38;47.00;;;39.42;;
568;SDS011;269;48.884;9.192;2023-08-30T02:49:05;60.38;;;44.20;;
568;SDS011;269;48.884;9.192;2023-08-30T02:51:33;45.67;;;37.97;;
568;SDS011;269;48.884;9.192;2023-08-30T02:54:00;40.00;;;35.92;;
568;SDS011;269;48.884;9.192;2023-08-30T02:56:27;36.22;;;32.78;;
568;SDS011;269;48.884;9.192;2023-08-30T02:58:54;51.85;;;42.30;;
568;SDS011;269;48.884;9.192;2023-08-30T03:01:21;48.30;;;41.83;;
568;SDS011;269;48.884;9.192;2023-08-30T03:03:48;51.15;;;41.97;;
568;SDS011;269;48.884;9.192;2023-08-30T03:06:14;41.47;;;37.03;;
568;SDS011;269;48.884;9.192;2023-08-30T03:08:42;47.97;;;39.40;;
568;SDS011;269;48.884;9.192;2023-08-30T03:11:09;47.55;;;40.53;;
568;SDS011;269;48.884;9.192;2023-08-30T03:13:36;44.95;;;39.70;;
568;SDS011;269;48.884;9.192;2023-08-30T03:16:09;54.13;;;42.83;;
568;SDS011;269;48.884;9.192;2023-08-30T03:18:37;47.53;;;41.42;;
568;SDS011;269;48.884;9.192;2023-08-30T03:21:04;38.15;;;34.58;;
568;SDS011;269;48.884;9.192;2023-08-30T03:23:31;39.83;;;36.10;;
568;SDS011;269;48.884;9.192;2023-08-30T03:25:59;42.42;;;38.10;;
568;SDS011;269;48.884;9.192;2023-08-30T03:28:33;38.13;;;34.47;;
568;SDS011;269;48.884;9.192;2023-08-30T03:31:00;46.78;;;39.60;;
568;SDS011;269;48.884;9.192;2023-08-30T03:33:26;50.95;;;42.17;;
568;SDS011;269;48.884;9.192;2023-08-30T03:35:53;48.08;;;42.05;;
568;SDS011;269;48.884;9.192;2023-08-30T03:38:20;41.30;;;36.95;;
568;SDS011;269;48.884;9.192;2023-08-30T03:40:52;39.90;;;35.85;;
568;SDS011;269;48.884;9.192;2023-08-30T03:43:21;47.30;;;42.13;;
568;SDS011;269;48.884;9.192;2023-08-30T03:45:48;45.15;;;40.00;;
568;SDS011;269;48.884;9.192;2023-08-30T03:48:14;39.05;;;35.45;;
568;SDS011;269;48.884;9.192;2023-08-30T03:50:41;50.97;;;43.22;;
568;SDS011;269;48.884;9.192;2023-08-30T03:53:08;53.28;;;42.63;;
568;SDS011;269;48.884;9.192;2023-08-30T03:55:35;42.17;;;37.92;;
568;SDS011;269;48.884;9.192;2023-08-30T03:58:02;53.25;;;41.90;;
568;SDS011;269;48.884;9.192;2023-08-30T04:00:30;46.67;;;40.78;;
568;SDS011;269;48.884;9.192;2023-08-30T04:02:57;50.30;;;42.23;;
568;SDS011;269;48.884;9.192;2023-08-30T04:05:23;50.20;;;42.07;;
568;SDS011;269;48.884;9.192;2023-08-30T04:07:50;43.22;;;38.78;;
568;SDS011;269;48.884;9.192;2023-08-30T04:10:16;43.37;;;38.90;;
568;SDS011;269;48.884;9.192;2023-08-30T04:12:43;39.40;;;35.65;;
568;SDS011;269;48.884;9.192;2023-08-30T04:15:10;52.25;;;43.83;;
568;SDS011;269;48.884;9.192;2023-08-30T04:17:39;37.05;;;33.65;;
568;SDS011;269;48.884;9.192;2023-08-30T04:20:07;43.33;;;38.88;;
568;SDS011;269;48.884;9.192;2023-08-30T04:22:35;50.42;;;43.03;;
568;SDS011;269;48.884;9.192;2023-08-30T04:25:03;47.47;;;42.00;;
568;SDS011;269;48.884;9.192;2023-08-30T04:27:30;48.17;;;42.47;;
568;SDS011;269;48.884;9.192;2023-08-30T04:29:57;46.00;;;40.42;;
568;SDS011;269;48.884;9.192;2023-08-30T04:32:24;58.33;;;44.55;;
568;SDS011;269;48.884;9.192;2023-08-30T04:34:52;47.28;;;42.13;;
568;SDS011;269;48.884;9.192;2023-08-30T04:37:18;47.60;;;41.80;;
568;SDS011;269;48.884;9.192;2023-08-30T04:39:47;49.65;;;41.80;;
568;SDS011;269;48.884;9.192;2023-08-30T04:42:14;42.17;;;37.67;;
568;SDS011;269;48.884;9.192;2023-08-30T04:44:40;44.10;;;39.30;;
568;SDS011;269;48.884;9.192;2023-08-30T04:47:07;53.75;;;43.42;;
568;SDS011;269;48.884;9.192;2023-08-30T04:49:34;52.20;;;42.20;;
568;SDS011;269;48.884;9.192;2023-08-30T04:52:03;42.72;;;38.17;;
568;SDS011;269;48.884;9.192;2023-08-30T04:54:31;45.60;;;40.67;;
568;SDS011;269;48.884;9.192;2023-08-30T04:56:58;43.35;;;38.63;;
568;SDS011;269;48.884;9.192;2023-08-30T04:59:25;42.65;;;38.25;;
568;SDS011;269;48.884;9.192;2023-08-30T05:01:51;39.17;;;35.33;;
568;SDS011;269;48.884;9.192;2023-08-30T05:04:18;39.92;;;36.03;;
568;SDS011;269;48.884;9.192;2023-08-30T05:06:45;39.07;;;35.30;;
568;SDS011;269;48.884;9.192;2023-08-30T05:09:13;38.63;;;35.03;;
568;SDS011;269;48.884;9.192;2023-08-30T05:11:40;39.10;;;35.17;;
568;SDS011;269;48.884;9.192;2023-08-30T05:14:07;34.75;;;31.75;;
568;SDS011;269;48.884;9.192;2023-08-30T05:16:38;44.20;;;39.70;;
568;SDS011;269;48.884;9.192;2023-08-30T05:19:05;37.20;;;33.72;;
568;SDS011;269;48.884;9.192;2023-08-30T05:21:32;38.88;;;35.00;;
568;SDS011;269;48.884;9.192;2023-08-30T05:23:59;35.05;;;31.67;;
568;SDS011;269;48.884;9.192;2023-08-30T05:26:27;33.03;;;30.17;;
568;SDS011;269;48.884;9.192;2023-08-30T05:28:54;36.30;;;32.85;;
568;SDS011;269;48.884;9.192;2023-08-30T05:31:20;39.03;;;35.33;;
568;SDS011;269;48.884;9.192;2023-08-30T05:33:47;35.83;;;32.58;;
568;SDS011;269;48.884;9.192;2023-08-30T05:36:14;39.92;;;36.10;;
568;SDS011;269;48.884;9.192;2023-08-30T05:38:41;39.17;;;35.30;;
568;SDS011;269;48.884;9.192;2023-08-30T05:41:09;42.80;;;38.40;;
568;SDS011;269;48.884;9.192;2023-08-30T05:43:37;37.88;;;34.17;;
568;SDS011;269;48.884;9.192;2023-08-30T05:46:04;33.13;;;30.40;;
568;SDS011;269;48.884;9.192;2023-08-30T05:48:32;38.20;;;34.70;;
568;SDS011;269;48.884;9.192;2023-08-30T05:51:00;36.17;;;32.72;;
568;SDS011;269;48.884;9.192;2023-08-30T05:53:28;31.63;;;28.93;;
568;SDS011;269;48.884;9.192;2023-08-30T05:55:55;29.97;;;27.47;;
568;SDS011;269;48.884;9.192;2023-08-30T05:58:21;35.15;;;32.10;;
568;SDS011;269;48.884;9.192;2023-08-30T06:00:50;34.08;;;31.05;;
568;SDS011;269;48.884;9.192;2023-08-30T06:03:17;32.20;;;29.50;;
568;SDS011;269;48.884;9.192;2023-08-30T06:05:43;30.08;;;27.67;;
568;SDS011;269;48.884;9.192;2023-08-30T06:08:10;28.83;;;26.43;;
568;SDS011;269;48.884;9.192;2023-08-30T06:10:37;33.10;;;30.30;;
568;SDS011;269;48.884;9.192;2023-08-30T06:13:04;28.30;;;26.00;;
568;SDS011;269;48.884;9.192;2023-08-30T06:15:31;26.35;;;24.27;;
568;SDS011;269;48.884;9.192;2023-08-30T06:18:00;27.17;;;24.97;;
568;SDS011;269;48.884;9.192;2023-08-30T06:20:27;28.33;;;26.10;;
568;SDS011;269;48.884;9.192;2023-08-30T06:22:54;27.27;;;25.10;;
568;SDS011;269;48.884;9.192;2023-08-30T06:25:22;24.77;;;22.87;;
568;SDS011;269;48.884;9.192;2023-08-30T06:27:55;27.70;;;25.60;;
568;SDS011;269;48.884;9.192;2023-08-30T06:30:22;21.60;;;20.10;;
568;SDS011;269;48.884;9.192;2023-08-30T06:32:49;24.47;;;22.63;;
568;SDS011;269;48.884;9.192;2023-08-30T06:35:17;22.03;;;20.33;;
568;SDS011;269;48.884;9.192;2023-08-30T06:37:44;21.63;;;20.03;;
568;SDS011;269;48.884;9.192;2023-08-30T06:40:11;21.27;;;19.67;;
568;SDS011;269;48.884;9.192;2023-08-30T06:42:38;20.17;;;18.67;;
568;SDS011;269;48.884;9.192;2023-08-30T06:45:05;22.17;;;20.60;;
568;SDS011;269;48.884;9.192;2023-08-30T06:47:32;21.30;;;19.50;;
568;SDS011;269;48.884;9.192;2023-08-30T06:52:28;19.00;;;17.70;;
568;SDS011;269;48.884;9.192;2023-08-30T06:54:54;19.40;;;18.00;;
568;SDS011;269;48.884;9.192;2023-08-30T06:57:21;19.57;;;18.07;;
568;SDS011;269;48.884;9.192;2023-08-30T06:59:48;17.50;;;16.20;;
568;SDS011;269;48.884;9.192;2023-08-30T07:02:15;19.63;;;18.23;;
568;SDS011;269;48.884;9.192;2023-08-30T07:04:42;18.40;;;17.07;;
568;SDS011;269;48.884;9.192;2023-08-30T07:07:09;17.20;;;15.80;;
568;SDS011;269;48.884;9.192;2023-08-30T07:09:37;15.97;;;14.80;;
568;SDS011;269;48.884;9.192;2023-08-30T07:12:04;14.53;;;13.43;;
568;SDS011;269;48.884;9.192;2023-08-30T07:14:32;15.90;;;14.70;;
568;SDS011;269;48.884;9.192;2023-08-30T07:16:58;16.17;;;14.97;;
568;SDS011;269;48.884;9.192;2023-08-30T07:19:25;15.20;;;14.07;;
568;SDS011;269;48.884;9.192;2023-08-30T07:21:52;13.20;;;12.30;;
568;SDS011;269;48.884;9.192;2023-08-30T07:24:19;14.37;;;13.47;;
568;SDS011;269;48.884;9.192;2023-08-30T07:26:49;14.40;;;13.37;;
568;SDS011;269;48.884;9.192;2023-08-30T07:29:16;16.27;;;15.07;;
568;SDS011;269;48.884;9.192;2023-08-30T07:31:42;15.17;;;14.17;;
568;SDS011;269;48.884;9.192;2023-08-30T07:34:09;16.47;;;15.10;;
568;SDS011;269;48.884;9.192;2023-08-30T07:36:37;15.23;;;14.00;;
568;SDS011;269;48.884;9.192;2023-08-30T07:39:04;16.00;;;14.90;;
568;SDS011;269;48.884;9.192;2023-08-30T07:41:31;14.87;;;13.87;;
568;SDS011;269;48.884;9.192;2023-08-30T07:44:01;13.90;;;12.90;;
568;SDS011;269;48.884;9.192;2023-08-30T07:46:28;13.13;;;12.10;;
568;SDS011;269;48.884;9.192;2023-08-30T07:48:55;15.97;;;14.87;;
568;SDS011;269;48.884;9.192;2023-08-30T07:51:22;15.17;;;14.10;;
568;SDS011;269;48.884;9.192;2023-08-30T07:53:49;15.00;;;13.90;;
568;SDS011;269;48.884;9.192;2023-08-30T07:56:15;15.00;;;14.00;;
568;SDS011;269;48.884;9.192;2023-08-30T07:58:42;15.47;;;14.33;;
568;SDS011;269;48.884;9.192;2023-08-30T08:01:10;14.20;;;13.00;;
568;SDS011;269;48.884;9.192;2023-08-30T08:03:37;14.43;;;13.53;;
568;SDS011;269;48.884;9.192;2023-08-30T08:06:04;14.40;;;13.40;;
568;SDS011;269;48.884;9.192;2023-08-30T08:08:31;13.10;;;12.00;;
568;SDS011;269;48.884;9.192;2023-08-30T08:11:16;13.20;;;12.30;;
568;SDS011;269;48.884;9.192;2023-08-30T08:13:43;13.27;;;12.27;;
568;SDS011;269;48.884;9.192;2023-08-30T08:16:12;11.73;;;10.80;;
568;SDS011;269;48.884;9.192;2023-08-30T08:18:38;11.13;;;10.30;;
568;SDS011;269;48.884;9.192;2023-08-30T08:21:05;11.00;;;10.30;;
568;SDS011;269;48.884;9.192;2023-08-30T08:23:32;10.53;;;9.83;;
568;SDS011;269;48.884;9.192;2023-08-30T08:25:59;10.90;;;10.10;;
568;SDS011;269;48.884;9.192;2023-08-30T08:28:28;10.77;;;10.07;;
568;SDS011;269;48.884;9.192;2023-08-30T08:30:55;10.13;;;9.50;;
568;SDS011;269;48.884;9.192;2023-08-30T08:33:23;11.43;;;10.50;;
568;SDS011;269;48.884;9.192;2023-08-30T08:35:50;9.57;;;8.87;;
568;SDS011;269;48.884;9.192;2023-08-30T08:38:17;9.80;;;9.20;;
568;SDS011;269;48.884;9.192;2023-08-30T08:40:44;8.53;;;7.93;;
568;SDS011;269;48.884;9.192;2023-08-30T08:43:11;9.23;;;8.57;;
568;SDS011;269;48.884;9.192;2023-08-30T08:45:38;9.13;;;8.43;;
568;SDS011;269;48.884;9.192;2023-08-30T08:48:05;9.43;;;8.73;;
568;SDS011;269;48.884;9.192;2023-08-30T08:50:34;8.53;;;7.93;;
568;SDS011;269;48.884;9.192;2023-08-30T08:53:01;8.00;;;7.40;;
568;SDS011;269;48.884;9.192;2023-08-30T08:55:29;6.63;;;6.13;;
568;SDS011;269;48.884;9.192;2023-08-30T08:57:57;7.57;;;6.80;;
568;SDS011;269;48.884;9.192;2023-08-30T09:00:24;6.43;;;6.03;;
568;SDS011;269;48.884;9.192;2023-08-30T09:02:52;6.87;;;6.40;;
568;SDS011;269;48.884;9.192;2023-08-30T09:05:20;6.23;;;5.67;;
568;SDS011;269;48.884;9.192;2023-08-30T09:07:48;6.40;;;5.90;;
568;SDS011;269;48.884;9.192;2023-08-30T09:10:19;6.63;;;6.13;;
568;SDS011;269;48.884;9.192;2023-08-30T09:12:46;5.87;;;5.47;;
568;SDS011;269;48.884;9.192;2023-08-30T09:15:13;5.87;;;5.47;;
568;SDS011;269;48.884;9.192;2023-08-30T09:17:40;5.87;;;5.47;;
568;SDS011;269;48.884;9.192;2023-08-30T09:20:08;5.70;;;5.20;;
568;SDS011;269;48.884;9.192;2023-08-30T09:22:36;5.80;;;5.40;;
568;SDS011;269;48.884;9.192;2023-08-30T09:25:06;5.77;;;5.37;;
568;SDS011;269;48.884;9.192;2023-08-30T09:27:35;4.60;;;4.30;;
568;SDS011;269;48.884;9.192;2023-08-30T09:30:04;4.53;;;4.23;;
568;SDS011;269;48.884;9.192;2023-08-30T09:32:38;5.37;;;5.00;;
568;SDS011;269;48.884;9.192;2023-08-30T09:35:05;5.03;;;4.63;;
568;SDS011;269;48.884;9.192;2023-08-30T09:37:33;3.80;;;3.60;;
568;SDS011;269;48.884;9.192;2023-08-30T09:39:59;4.37;;;4.07;;
568;SDS011;269;48.884;9.192;2023-08-30T09:42:28;3.70;;;3.40;;
568;SDS011;269;48.884;9.192;2023-08-30T09:44:55;3.77;;;3.47;;
568;SDS011;269;48.884;9.192;2023-08-30T09:47:23;4.20;;;3.90;;
568;SDS011;269;48.884;9.192;2023-08-30T09:49:51;3.87;;;3.63;;
568;SDS011;269;48.884;9.192;2023-08-30T09:52:22;4.47;;;4.10;;
568;SDS011;269;48.884;9.192;2023-08-30T09:54:50;4.10;;;3.80;;
568;SDS011;269;48.884;9.192;2023-08-30T09:57:18;3.57;;;3.27;;
568;SDS011;269;48.884;9.192;2023-08-30T09:59:46;4.10;;;3.80;;
568;SDS011;269;48.884;9.192;2023-08-30T10:02:13;3.47;;;3.20;;
568;SDS011;269;48.884;9.192;2023-08-30T10:04:40;3.20;;;2.97;;
568;SDS011;269;48.884;9.192;2023-08-30T10:07:07;3.20;;;3.00;;
568;SDS011;269;48.884;9.192;2023-08-30T10:09:36;3.50;;;3.30;;
568;SDS011;269;48.884;9.192;2023-08-30T10:12:05;3.00;;;2.70;;
568;SDS011;269;48.884;9.192;2023-08-30T10:14:32;3.00;;;2.70;;
568;SDS011;269;48.884;9.192;2023-08-30T10:17:01;4.70;;;3.63;;
568;SDS011;269;48.884;9.192;2023-08-30T10:19:29;2.90;;;2.70;;
568;SDS011;269;48.884;9.192;2023-08-30T10:21:59;2.73;;;2.60;;
568;SDS011;269;48.884;9.192;2023-08-30T10:24:29;2.93;;;2.73;;
568;SDS011;269;48.884;9.192;2023-08-30T10:26:56;4.53;;;3.37;;
568;SDS011;269;48.884;9.192;2023-08-30T10:29:24;3.50;;;3.30;;
568;SDS011;269;48.884;9.192;2023-08-30T10:31:51;3.40;;;3.20;;
568;SDS011;269;48.884;9.192;2023-08-30T10:34:19;3.20;;;2.93;;
568;SDS011;269;48.884;9.192;2023-08-30T10:36:55;3.30;;;3.00;;
568;SDS011;269;48.884;9.192;2023-08-30T10:39:27;3.63;;;3.00;;
568;SDS011;269;48.884;9.192;2023-08-30T10:41:59;4.53;;;3.03;;
568;SDS011;269;48.884;9.192;2023-08-30T10:44:26;3.37;;;3.10;;
568;SDS011;269;48.884;9.192;2023-08-30T10:46:53;3.30;;;3.00;;
568;SDS011;269;48.884;9.192;2023-08-30T10:49:22;3.90;;;3.60;;
568;SDS011;269;48.884;9.192;2023-08-30T10:51:55;2.83;;;2.63;;
568;SDS011;269;48.884;9.192;2023-08-30T10:54:22;2.93;;;2.73;;
568;SDS011;269;48.884;9.192;2023-08-30T10:56:54;3.10;;;2.90;;
568;SDS011;269;48.884;9.192;2023-08-30T10:59:22;3.10;;;2.80;;
568;SDS011;269;48.884;9.192;2023-08-30T11:01:50;3.10;;;2.80;;
568;SDS011;269;48.884;9.192;2023-08-30T11:04:18;2.60;;;2.43;;
568;SDS011;269;48.884;9.192;2023-08-30T11:06:47;2.83;;;2.63;;
568;SDS011;269;48.884;9.192;2023-08-30T11:09:15;2.63;;;2.53;;
568;SDS011;269;48.884;9.192;2023-08-30T11:11:43;2.80;;;2.60;;
568;SDS011;269;48.884;9.192;2023-08-30T11:14:10;2.63;;;2.53;;
568;SDS011;269;48.884;9.192;2023-08-30T11:16:37;2.90;;;2.70;;
568;SDS011;269;48.884;9.192;2023-08-30T11:19:04;3.27;;;3.07;;
568;SDS011;269;48.884;9.192;2023-08-30T11:21:33;2.90;;;2.70;;
568;SDS011;269;48.884;9.192;2023-08-30T11:24:02;2.10;;;2.00;;
568;SDS011;269;48.884;9.192;2023-08-30T11:26:29;3.00;;;2.80;;
568;SDS011;269;48.884;9.192;2023-08-30T11:28:56;3.87;;;3.57;;
568;SDS011;269;48.884;9.192;2023-08-30T11:31:23;3.87;;;3.57;;
568;SDS011;269;48.884;9.192;2023-08-30T11:33:53;3.37;;;3.17;;
568;SDS011;269;48.884;9.192;2023-08-30T11:36:21;3.80;;;3.17;;
568;SDS011;269;48.884;9.192;2023-08-30T11:38:48;3.53;;;3.33;;
568;SDS011;269;48.884;9.192;2023-08-30T11:41:17;3.73;;;3.53;;
568;SDS011;269;48.884;9.192;2023-08-30T11:43:44;3.80;;;3.50;;
568;SDS011;269;48.884;9.192;2023-08-30T11:46:11;3.47;;;3.17;;
568;SDS011;269;48.884;9.192;2023-08-30T11:48:38;3.60;;;3.30;;
568;SDS011;269;48.884;9.192;2023-08-30T11:51:05;3.70;;;3.50;;
568;SDS011;269;48.884;9.192;2023-08-30T11:53:33;4.50;;;3.77;;
568;SDS011;269;48.884;9.192;2023-08-30T11:56:00;3.97;;;3.67;;
568;SDS011;269;48.884;9.192;2023-08-30T11:58:28;3.43;;;3.13;;
568;SDS011;269;48.884;9.192;2023-08-30T12:00:59;3.67;;;3.47;;
568;SDS011;269;48.884;9.192;2023-08-30T12:03:26;3.73;;;3.53;;
568;SDS011;269;48.884;9.192;2023-08-30T12:05:53;4.00;;;3.70;;
568;SDS011;269;48.884;9.192;2023-08-30T12:08:21;4.50;;;4.20;;
568;SDS011;269;48.884;9.192;2023-08-30T12:10:49;4.63;;;4.33;;
568;SDS011;269;48.884;9.192;2023-08-30T12:13:20;5.17;;;4.83;;
568;SDS011;269;48.884;9.192;2023-08-30T12:15:49;4.70;;;4.40;;
568;SDS011;269;48.884;9.192;2023-08-30T12:18:16;4.70;;;4.40;;
568;SDS011;269;48.884;9.192;2023-08-30T12:20:53;5.57;;;5.20;;
568;SDS011;269;48.884;9.192;2023-08-30T12:23:21;5.70;;;5.40;;
568;SDS011;269;48.884;9.192;2023-08-30T12:26:01;6.57;;;6.07;;
568;SDS011;269;48.884;9.192;2023-08-30T12:28:30;6.73;;;6.23;;
568;SDS011;269;48.884;9.192;2023-08-30T12:30:59;6.77;;;6.30;;
568;SDS011;269;48.884;9.192;2023-08-30T12:33:26;6.90;;;6.27;;
568;SDS011;269;48.884;9.192;2023-08-30T12:35:54;5.97;;;5.57;;
568;SDS011;269;48.884;9.192;2023-08-30T12:38:21;5.97;;;5.50;;
568;SDS011;269;48.884;9.192;2023-08-30T12:40:49;4.87;;;4.50;;
568;SDS011;269;48.884;9.192;2023-08-30T12:43:16;4.90;;;4.57;;
568;SDS011;269;48.884;9.192;2023-08-30T12:45:44;4.87;;;4.57;;
568;SDS011;269;48.884;9.192;2023-08-30T12:48:12;4.53;;;4.20;;
568;SDS011;269;48.884;9.192;2023-08-30T12:50:41;5.70;;;5.17;;
568;SDS011;269;48.884;9.192;2023-08-30T12:53:11;5.20;;;4.90;;
568;SDS011;269;48.884;9.192;2023-08-30T12:55:38;4.30;;;4.10;;
568;SDS011;269;48.884;9.192;2023-08-30T12:58:06;4.43;;;4.13;;
568;SDS011;269;48.884;9.192;2023-08-30T13:00:33;4.80;;;4.50;;
568;SDS011;269;48.884;9.192;2023-08-30T13:03:01;3.80;;;3.60;;
568;SDS011;269;48.884;9.192;2023-08-30T13:05:30;4.20;;;4.00;;
568;SDS011;269;48.884;9.192;2023-08-30T13:07:57;3.93;;;3.47;;
568;SDS011;269;48.884;9.192;2023-08-30T13:10:24;3.53;;;3.33;;
568;SDS011;269;48.884;9.192;2023-08-30T13:12:51;4.23;;;3.93;;
568;SDS011;269;48.884;9.192;2023-08-30T13:15:18;4.17;;;3.93;;
568;SDS011;269;48.884;9.192;2023-08-30T13:17:45;3.53;;;3.33;;
568;SDS011;269;48.884;9.192;2023-08-30T13:20:12;4.23;;;3.83;;
568;SDS011;269;48.884;9.192;2023-08-30T13:22:40;4.83;;;3.93;;
568;SDS011;269;48.884;9.192;2023-08-30T13:25:07;3.97;;;3.57;;
568;SDS011;269;48.884;9.192;2023-08-30T13:27:35;3.87;;;3.57;;
568;SDS011;269;48.884;9.192;2023-08-30T13:30:02;3.53;;;3.33;;
568;SDS011;269;48.884;9.192;2023-08-30T13:32:29;3.53;;;3.13;;
568;SDS011;269;48.884;9.192;2023-08-30T13:34:56;3.13;;;2.93;;
568;SDS011;269;48.884;9.192;2023-08-30T13:37:23;3.13;;;2.40;;
568;SDS011;269;48.884;9.192;2023-08-30T13:39:51;2.77;;;2.60;;
568;SDS011;269;48.884;9.192;2023-08-30T13:42:18;2.70;;;2.50;;
568;SDS011;269;48.884;9.192;2023-08-30T13:44:46;2.73;;;2.63;;
568;SDS011;269;48.884;9.192;2023-08-30T13:47:13;2.30;;;2.10;;
568;SDS011;269;48.884;9.192;2023-08-30T13:49:42;3.07;;;2.87;;
568;SDS011;269;48.884;9.192;2023-08-30T13:52:09;2.80;;;2.60;;
568;SDS011;269;48.884;9.192;2023-08-30T13:54:35;2.70;;;2.50;;
568;SDS011;269;48.884;9.192;2023-08-30T13:57:04;2.50;;;2.40;;
568;SDS011;269;48.884;9.192;2023-08-30T13:59:31;2.10;;;1.90;;
568;SDS011;269;48.884;9.192;2023-08-30T14:01:57;2.63;;;2.50;;
568;SDS011;269;48.884;9.192;2023-08-30T14:04:25;2.43;;;2.07;;
568;SDS011;269;48.884;9.192;2023-08-30T14:06:52;2.20;;;2.00;;
568;SDS011;269;48.884;9.192;2023-08-30T14:09:18;3.33;;;2.00;;
568;SDS011;269;48.884;9.192;2023-08-30T14:11:46;2.43;;;2.23;;
568;SDS011;269;48.884;9.192;2023-08-30T14:14:14;2.70;;;2.50;;
568;SDS011;269;48.884;9.192;2023-08-30T14:16:41;3.17;;;2.97;;
568;SDS011;269;48.884;9.192;2023-08-30T14:19:08;3.03;;;2.83;;
568;SDS011;269;48.884;9.192;2023-08-30T14:21:34;3.00;;;2.80;;
568;SDS011;269;48.884;9.192;2023-08-30T14:24:02;3.20;;;2.90;;
568;SDS011;269;48.884;9.192;2023-08-30T14:26:30;3.10;;;2.90;;
568;SDS011;269;48.884;9.192;2023-08-30T14:28:57;2.93;;;2.73;;
568;SDS011;269;48.884;9.192;2023-08-30T14:31:25;3.10;;;2.90;;
568;SDS011;269;48.884;9.192;2023-08-30T14:33:54;3.63;;;3.33;;
568;SDS011;269;48.884;9.192;2023-08-30T14:36:22;3.20;;;2.93;;
568;SDS011;269;48.884;9.192;2023-08-30T14:38:49;3.43;;;3.23;;
568;SDS011;269;48.884;9.192;2023-08-30T14:41:16;3.10;;;2.90;;
568;SDS011;269;48.884;9.192;2023-08-30T14:43:43;3.60;;;2.83;;
568;SDS011;269;48.884;9.192;2023-08-30T14:46:10;3.27;;;3.07;;
568;SDS011;269;48.884;9.192;2023-08-30T14:48:38;3.00;;;2.80;;
568;SDS011;269;48.884;9.192;2023-08-30T14:51:05;3.23;;;3.00;;
568;SDS011;269;48.884;9.192;2023-08-30T14:53:32;3.40;;;3.10;;
568;SDS011;269;48.884;9.192;2023-08-30T14:55:59;2.97;;;2.77;;
568;SDS011;269;48.884;9.192;2023-08-30T14:58:26;3.53;;;2.87;;
568;SDS011;269;48.884;9.192;2023-08-30T15:00:54;4.03;;;2.67;;
568;SDS011;269;48.884;9.192;2023-08-30T15:03:20;3.30;;;3.10;;
568;SDS011;269;48.884;9.192;2023-08-30T15:05:53;3.30;;;3.00;;
568;SDS011;269;48.884;9.192;2023-08-30T15:08:20;3.60;;;3.30;;
568;SDS011;269;48.884;9.192;2023-08-30T15:10:49;3.10;;;2.90;;
568;SDS011;269;48.884;9.192;2023-08-30T15:13:16;3.50;;;3.20;;
568;SDS011;269;48.884;9.192;2023-08-30T15:15:43;3.10;;;2.90;;
568;SDS011;269;48.884;9.192;2023-08-30T15:18:10;3.70;;;3.50;;
568;SDS011;269;48.884;9.192;2023-08-30T15:20:37;3.63;;;3.43;;
568;SDS011;269;48.884;9.192;2023-08-30T15:23:06;3.93;;;3.57;;
568;SDS011;269;48.884;9.192;2023-08-30T15:25:33;3.27;;;3.00;;
568;SDS011;269;48.884;9.192;2023-08-30T15:27:59;3.10;;;2.90;;
568;SDS011;269;48.884;9.192;2023-08-30T15:30:26;3.40;;;2.80;;
568;SDS011;269;48.884;9.192;2023-08-30T15:32:53;3.10;;;2.60;;
568;SDS011;269;48.884;9.192;2023-08-30T15:35:20;2.83;;;2.67;;